createdAt,value
2022-09-25T00:00:09.691Z,999.6262207
2022-09-25T00:01:08.852Z,999.5282593
2022-09-25T00:02:11.767Z,999.5906372
2022-09-25T00:03:11.430Z,999.5789185
2022-09-25T00:04:05.951Z,999.5614014
2022-09-25T00:05:08.922Z,999.5462646
2022-09-25T00:06:06.333Z,999.5421753
2022-09-25T00:07:03.664Z,999.5387573
2022-09-25T00:08:04.675Z,999.5859375
2022-09-25T00:09:01.873Z,999.5452271
2022-09-25T00:10:04.868Z,999.4863281
2022-09-25T00:11:07.444Z,999.5786133
2022-09-25T00:12:04.895Z,999.5609131
2022-09-25T00:13:04.921Z,999.546875
2022-09-25T00:15:01.041Z,999.5557861
2022-09-25T00:15:52.877Z,999.5744019
2022-09-25T00:16:55.131Z,999.505127
2022-09-25T00:17:47.888Z,999.5705566
2022-09-25T00:18:47.861Z,999.6422119
2022-09-25T00:19:43.240Z,999.6221313
2022-09-25T00:20:44.322Z,999.6530762
2022-09-25T00:21:38.863Z,999.6044312
2022-09-25T00:22:39.446Z,999.5720215
2022-09-25T00:23:36.363Z,999.68396
2022-09-25T00:24:35.949Z,999.6333008
2022-09-25T00:25:38.866Z,999.6436157
2022-09-25T00:26:48.673Z,999.6132813
2022-09-25T00:27:47.390Z,999.6397705
2022-09-25T00:29:46.266Z,999.5906372
2022-09-25T00:30:39.984Z,999.6192017
2022-09-25T00:31:41.039Z,999.6029663
2022-09-25T00:33:29.640Z,999.6052856
2022-09-25T00:34:54.841Z,999.5552368
2022-09-25T00:35:56.194Z,999.5161133
2022-09-25T00:36:58.977Z,999.505127
2022-09-25T00:37:59.475Z,999.631897
2022-09-25T00:38:55.060Z,999.5646973
2022-09-25T00:39:56.281Z,999.6199951
2022-09-25T00:40:51.514Z,999.5876465
2022-09-25T00:41:51.508Z,999.5979614
2022-09-25T00:42:47.177Z,999.6656494
2022-09-25T00:44:42.362Z,999.6146851
2022-09-25T00:45:44.609Z,999.5822144
2022-09-25T00:46:42.800Z,999.576416
2022-09-25T00:47:46.075Z,999.5601807
2022-09-25T00:48:38.765Z,999.600769
2022-09-25T00:49:41.757Z,999.6862793
2022-09-25T00:50:37.255Z,999.6509399
2022-09-25T00:51:42.388Z,999.711853
2022-09-25T00:52:39.400Z,999.6589355
2022-09-25T00:53:41.761Z,999.6141357
2022-09-25T00:54:36.039Z,999.6331787
2022-09-25T00:55:37.599Z,999.600769
2022-09-25T00:56:33.006Z,999.5748291
2022-09-25T00:57:38.348Z,999.6278076
2022-09-25T00:59:43.030Z,999.6567383
2022-09-25T01:00:37.232Z,999.6218872
2022-09-25T01:01:37.571Z,999.5875244
2022-09-25T01:02:36.125Z,999.6771851
2022-09-25T01:04:37.283Z,999.6610107
2022-09-25T01:05:44.228Z,999.7220459
2022-09-25T01:06:38.179Z,999.7081299
2022-09-25T01:07:40.720Z,999.6835938
2022-09-25T01:09:41.057Z,999.6713257
2022-09-25T01:10:35.647Z,999.7184448
2022-09-25T01:11:38.228Z,999.744873
2022-09-25T01:12:33.480Z,999.6918945
2022-09-25T01:13:39.221Z,999.6815796
2022-09-25T01:14:38.597Z,999.755127
2022-09-25T01:15:39.218Z,999.6895142
2022-09-25T01:17:03.481Z,999.7346191
2022-09-25T01:17:44.436Z,999.710144
2022-09-25T01:18:43.376Z,999.7081299
2022-09-25T01:19:46.459Z,999.720459
2022-09-25T01:20:48.254Z,999.6939087
2022-09-25T01:21:49.535Z,999.6697388
2022-09-25T01:22:48.089Z,999.6879883
2022-09-25T01:23:52.795Z,999.7022095
2022-09-25T01:24:54.880Z,999.7042236
2022-09-25T01:25:56.915Z,999.671814
2022-09-25T01:27:02.960Z,999.6496582
2022-09-25T01:28:00.908Z,999.5887451
2022-09-25T01:29:04.616Z,999.6740723
2022-09-25T01:29:57.338Z,999.6740723
2022-09-25T01:30:57.065Z,999.7168579
2022-09-25T01:31:56.123Z,999.7189331
2022-09-25T01:32:57.546Z,999.7086182
2022-09-25T01:33:59.000Z,999.671814
2022-09-25T01:34:57.421Z,999.7512207
2022-09-25T01:35:57.116Z,999.7129517
2022-09-25T01:36:54.576Z,999.6599121
2022-09-25T01:37:59.027Z,999.6967163
2022-09-25T01:38:53.258Z,999.6539917
2022-09-25T01:39:57.858Z,999.7762451
2022-09-25T01:40:54.485Z,999.680481
2022-09-25T01:42:05.022Z,999.7313843
2022-09-25T01:43:03.528Z,999.7904053
2022-09-25T01:44:59.119Z,999.7254639
2022-09-25T01:46:01.459Z,999.7844238
2022-09-25T01:47:00.660Z,999.7844238
2022-09-25T01:48:05.396Z,999.7805176
2022-09-25T01:49:07.367Z,999.8292236
2022-09-25T01:50:20.097Z,999.7172852
2022-09-25T01:51:13.502Z,999.7540894
2022-09-25T01:52:16.727Z,999.7520142
2022-09-25T01:54:13.717Z,999.8449707
2022-09-25T01:54:47.320Z,999.8156128
2022-09-25T01:55:44.994Z,999.7701416
2022-09-25T01:56:45.983Z,999.7495117
2022-09-25T01:57:45.072Z,999.8104858
2022-09-25T01:59:44.011Z,999.8251343
2022-09-25T02:00:40.941Z,999.736145
2022-09-25T02:01:41.412Z,999.7892456
2022-09-25T02:02:41.880Z,999.75
2022-09-25T02:04:35.443Z,999.8112793
2022-09-25T02:05:35.325Z,999.7567139
2022-09-25T02:06:30.884Z,999.7140503
2022-09-25T02:07:30.791Z,999.7729492
2022-09-25T02:08:32.618Z,999.7479858
2022-09-25T02:09:31.691Z,999.8215332
2022-09-25T02:10:27.954Z,999.8215332
2022-09-25T02:11:28.302Z,999.7789307
2022-09-25T02:12:23.020Z,999.7647095
2022-09-25T02:13:23.199Z,999.7543945
2022-09-25T02:15:20.280Z,999.7507935
2022-09-25T02:16:16.178Z,999.8101807
2022-09-25T02:17:16.421Z,999.7189331
2022-09-25T02:18:19.119Z,999.7659302
2022-09-25T02:19:18.181Z,999.6990356
2022-09-25T02:20:16.144Z,999.7540894
2022-09-25T02:21:15.920Z,999.7034302
2022-09-25T02:22:10.497Z,999.6958618
2022-09-25T02:23:16.579Z,999.7037354
2022-09-25T02:24:09.015Z,999.7037354
2022-09-25T02:25:07.866Z,999.6713867
2022-09-25T02:26:04.214Z,999.7346802
2022-09-25T02:27:03.683Z,999.7164307
2022-09-25T02:27:57.981Z,999.6796875
2022-09-25T02:29:02.171Z,999.616394
2022-09-25T02:29:54.182Z,999.6590576
2022-09-25T02:30:54.166Z,999.7037354
2022-09-25T02:31:49.516Z,999.7714233
2022-09-25T02:32:48.986Z,999.7492065
2022-09-25T02:33:53.622Z,999.7634277
2022-09-25T02:34:52.518Z,999.7287598
2022-09-25T02:35:50.610Z,999.7575073
2022-09-25T02:36:58.960Z,999.741272
2022-09-25T02:37:59.712Z,999.7270508
2022-09-25T02:38:58.390Z,999.6721191
2022-09-25T02:40:01.237Z,999.7697754
2022-09-25T02:40:53.941Z,999.7352905
2022-09-25T02:41:57.509Z,999.7250977
2022-09-25T02:42:50.280Z,999.8001709
2022-09-25T02:44:59.862Z,999.8061523
2022-09-25T02:47:06.458Z,999.7077637
2022-09-25T02:47:28.078Z,999.7579956
2022-09-25T02:49:34.412Z,999.7789307
2022-09-25T02:50:32.466Z,999.8054199
2022-09-25T02:51:32.098Z,999.8015137
2022-09-25T02:52:28.536Z,999.7773438
2022-09-25T02:54:24.499Z,999.8117065
2022-09-25T02:55:25.537Z,999.755127
2022-09-25T02:56:21.744Z,999.7880249
2022-09-25T02:57:27.198Z,999.7821045
2022-09-25T02:59:24.556Z,999.6967163
2022-09-25T03:00:21.875Z,999.7215576
2022-09-25T03:01:23.212Z,999.6975098
2022-09-25T03:02:18.991Z,999.7077637
2022-09-25T03:03:26.103Z,999.723877
2022-09-25T03:05:17.810Z,999.7729492
2022-09-25T03:06:16.887Z,999.7223511
2022-09-25T03:07:21.435Z,999.6899414
2022-09-25T03:08:18.542Z,999.7508545
2022-09-25T03:10:17.896Z,999.7575073
2022-09-25T03:11:18.390Z,999.6780396
2022-09-25T03:12:20.770Z,999.7167969
2022-09-25T03:13:16.016Z,999.7697754
2022-09-25T03:15:13.013Z,999.7373657
2022-09-25T03:16:12.959Z,999.7092285
2022-09-25T03:17:09.618Z,999.8395996
2022-09-25T03:18:09.625Z,999.8092041
2022-09-25T03:20:09.424Z,999.8138428
2022-09-25T03:21:04.140Z,999.791626
2022-09-25T03:22:04.808Z,999.7363892
2022-09-25T03:22:59.793Z,999.8320313
2022-09-25T03:24:55.238Z,999.7142334
2022-09-25T03:26:00.204Z,999.8283691
2022-09-25T03:26:54.088Z,999.7672119
2022-09-25T03:27:54.020Z,999.7549438
2022-09-25T03:28:48.413Z,999.7873535
2022-09-25T03:30:33.679Z,999.7767334
2022-09-25T03:31:14.312Z,999.7867432
2022-09-25T03:32:12.357Z,999.855835
2022-09-25T03:33:13.841Z,999.7764282
2022-09-25T03:34:08.314Z,999.8029175
2022-09-25T03:35:09.181Z,999.7438965
2022-09-25T03:36:06.387Z,999.7012329
2022-09-25T03:37:07.956Z,999.6929932
2022-09-25T03:38:03.208Z,999.7158813
2022-09-25T03:39:16.288Z,999.7605591
2022-09-25T03:40:14.469Z,999.7115479
2022-09-25T03:41:18.015Z,999.6917114
2022-09-25T03:42:10.983Z,999.6651611
2022-09-25T03:45:09.141Z,999.7446899
2022-09-25T03:46:04.452Z,999.7526855
2022-09-25T03:47:12.214Z,999.791626
2022-09-25T03:48:05.052Z,999.7995605
2022-09-25T03:49:05.779Z,999.7952881
2022-09-25T03:50:01.319Z,999.7078857
2022-09-25T03:51:00.954Z,999.7711182
2022-09-25T03:52:00.246Z,999.7687988
2022-09-25T03:53:03.649Z,999.7506104
2022-09-25T03:55:01.252Z,999.7748413
2022-09-25T03:55:56.229Z,999.7932739
2022-09-25T03:56:57.587Z,999.6976318
2022-09-25T03:57:51.925Z,999.8217773
2022-09-25T03:59:51.547Z,999.805542
2022-09-25T04:00:49.736Z,999.8668213
2022-09-25T04:01:54.245Z,999.7790527
2022-09-25T04:02:46.294Z,999.7609253
2022-09-25T04:03:48.715Z,999.78302
2022-09-25T04:04:42.686Z,999.6850586
2022-09-25T04:05:46.203Z,999.7807617
2022-09-25T04:07:34.254Z,999.7704468
2022-09-25T04:08:15.880Z,999.7859497
2022-09-25T04:09:13.369Z,999.7104492
2022-09-25T04:10:13.858Z,999.8104858
2022-09-25T04:11:09.720Z,999.7190552
2022-09-25T04:12:09.378Z,999.7313843
2022-09-25T04:13:05.883Z,999.7175293
2022-09-25T04:15:01.643Z,999.6953125
2022-09-25T04:16:01.352Z,999.6568604
2022-09-25T04:17:00.867Z,999.6443481
2022-09-25T04:17:55.971Z,999.6482544
2022-09-25T04:18:59.989Z,999.6195068
2022-09-25T04:19:58.964Z,999.6688232
2022-09-25T04:21:02.514Z,999.6790771
2022-09-25T04:21:55.122Z,999.6099243
2022-09-25T04:22:54.599Z,999.6914063
2022-09-25T04:24:51.838Z,999.6304932
2022-09-25T04:25:48.835Z,999.6079712
2022-09-25T04:26:51.781Z,999.5996704
2022-09-25T04:27:46.020Z,999.5328369
2022-09-25T04:28:47.672Z,999.6526489
2022-09-25T04:29:47.968Z,999.59375
2022-09-25T04:30:49.651Z,999.6040649
2022-09-25T04:31:44.275Z,999.545166
2022-09-25T04:32:46.531Z,999.5818481
2022-09-25T04:33:44.217Z,999.5960693
2022-09-25T04:34:46.562Z,999.5715332
2022-09-25T04:35:40.023Z,999.5106201
2022-09-25T04:36:39.498Z,999.6003418
2022-09-25T04:37:40.234Z,999.6165771
2022-09-25T04:42:02.628Z,999.6634521
2022-09-25T04:42:24.914Z,999.6507568
2022-09-25T04:43:22.444Z,999.7313843
2022-09-25T04:45:22.297Z,999.7393799
2022-09-25T04:46:21.871Z,999.7034302
2022-09-25T04:46:22.958Z,999.7034302
2022-09-25T04:47:21.694Z,999.7709961
2022-09-25T04:48:19.625Z,999.7140503
2022-09-25T04:50:15.686Z,999.7270508
2022-09-25T04:51:15.664Z,999.796875
2022-09-25T04:52:10.859Z,999.8032837
2022-09-25T04:53:07.830Z,999.7363892
2022-09-25T04:55:05.501Z,999.7182007
2022-09-25T04:56:06.054Z,999.6612549
2022-09-25T04:57:01.634Z,999.7327271
2022-09-25T04:58:07.522Z,999.7370605
2022-09-25T04:59:59.227Z,999.7817383
2022-09-25T05:00:59.983Z,999.7310791
2022-09-25T05:01:55.520Z,999.741272
2022-09-25T05:02:55.556Z,999.7700806
2022-09-25T05:04:50.003Z,999.7089233
2022-09-25T05:05:50.648Z,999.6889038
2022-09-25T05:06:42.689Z,999.6807251
2022-09-25T05:07:42.835Z,999.6300049
2022-09-25T05:09:37.456Z,999.6727295
2022-09-25T05:10:40.971Z,999.5953369
2022-09-25T05:11:32.647Z,999.666748
2022-09-25T05:12:34.292Z,999.6422729
2022-09-25T05:15:15.692Z,999.5321655
2022-09-25T05:15:37.577Z,999.5808105
2022-09-25T05:16:36.128Z,999.6287231
2022-09-25T05:17:11.431Z,999.651001
2022-09-25T05:18:11.982Z,999.6569824
2022-09-25T05:20:07.475Z,999.592041
2022-09-25T05:21:10.742Z,999.6860962
2022-09-25T05:22:03.591Z,999.696228
2022-09-25T05:23:02.287Z,999.741272
2022-09-25T05:24:03.929Z,999.7634888
2022-09-25T05:25:02.041Z,999.7125244
2022-09-25T05:26:02.192Z,999.7250977
2022-09-25T05:26:57.084Z,999.7089233
2022-09-25T05:27:58.975Z,999.6968994
2022-09-25T05:30:03.936Z,999.6932983
2022-09-25T05:31:02.141Z,999.632019
2022-09-25T05:32:05.465Z,999.6975098
2022-09-25T05:33:02.114Z,999.7156982
2022-09-25T05:34:06.820Z,999.7504883
2022-09-25T05:35:04.585Z,999.7077637
2022-09-25T05:36:04.252Z,999.6386108
2022-09-25T05:36:59.697Z,999.664978
2022-09-25T05:38:00.146Z,999.675293
2022-09-25T05:38:58.030Z,999.6729736
2022-09-25T05:39:59.787Z,999.640625
2022-09-25T05:40:55.521Z,999.6772461
2022-09-25T05:41:58.383Z,999.616394
2022-09-25T05:42:53.954Z,999.6935425
2022-09-25T05:44:49.288Z,999.7421875
2022-09-25T05:45:47.203Z,999.6445313
2022-09-25T05:46:48.694Z,999.6812744
2022-09-25T05:47:44.132Z,999.6548462
2022-09-25T05:49:46.786Z,999.7131348
2022-09-25T05:50:49.282Z,999.7581177
2022-09-25T05:51:42.519Z,999.7072144
2022-09-25T05:52:46.072Z,999.7072144
2022-09-25T05:54:43.446Z,999.6949463
2022-09-25T05:55:46.971Z,999.696228
2022-09-25T05:56:44.467Z,999.708252
2022-09-25T05:58:31.018Z,999.6737671
2022-09-25T06:00:12.041Z,999.8181152
2022-09-25T06:01:15.976Z,999.7327271
2022-09-25T06:02:13.038Z,999.7449951
2022-09-25T06:03:15.653Z,999.7492065
2022-09-25T06:04:12.029Z,999.7779541
2022-09-25T06:05:15.585Z,999.7640381
2022-09-25T06:06:10.995Z,999.7131348
2022-09-25T06:07:16.228Z,999.6932983
2022-09-25T06:08:12.529Z,999.6872559
2022-09-25T06:10:11.588Z,999.7282715
2022-09-25T06:11:16.284Z,999.7242432
2022-09-25T06:12:10.628Z,999.7529907
2022-09-25T06:13:13.517Z,999.734436
2022-09-25T06:14:08.636Z,999.7139893
2022-09-25T06:15:11.524Z,999.7566528
2022-09-25T06:16:05.979Z,999.7668457
2022-09-25T06:17:09.140Z,999.8016357
2022-09-25T06:18:02.866Z,999.7404785
2022-09-25T06:20:02.335Z,999.7506104
2022-09-25T06:21:06.188Z,999.7404785
2022-09-25T06:22:01.864Z,999.7324829
2022-09-25T06:23:01.340Z,999.793335
2022-09-25T06:25:00.152Z,999.7572021
2022-09-25T06:26:05.724Z,999.7122803
2022-09-25T06:27:01.015Z,999.7489014
2022-09-25T06:27:59.868Z,999.7793579
2022-09-25T06:29:59.095Z,999.7854004
2022-09-25T06:31:01.052Z,999.7831421
2022-09-25T06:31:57.609Z,999.828125
2022-09-25T06:33:03.409Z,999.7668457
2022-09-25T06:35:01.381Z,999.8095093
2022-09-25T06:36:01.210Z,999.8361206
2022-09-25T06:36:59.088Z,999.8443604
2022-09-25T06:38:00.631Z,999.8870239
2022-09-25T06:38:57.193Z,999.8847046
2022-09-25T06:40:01.818Z,999.9134521
2022-09-25T06:40:59.556Z,999.8605347
2022-09-25T06:41:57.120Z,999.9112549
2022-09-25T06:43:33.869Z,999.8845215
2022-09-25T06:44:16.949Z,999.8759155
2022-09-25T06:45:19.563Z,999.8898315
2022-09-25T06:46:14.393Z,999.9024048
2022-09-25T06:47:18.522Z,999.8839111
2022-09-25T06:47:22.494Z,999.8839111
2022-09-25T06:48:15.985Z,999.8021851
2022-09-25T06:50:06.661Z,999.8465576
2022-09-25T06:51:06.134Z,999.9078369
2022-09-25T06:52:01.392Z,999.9935303
2022-09-25T06:53:01.518Z,999.9345093
2022-09-25T06:53:56.911Z,999.9957886
2022-09-25T06:54:56.095Z,999.8735962
2022-09-25T06:55:51.345Z,999.9368896
2022-09-25T06:56:53.476Z,999.8964233
2022-09-25T06:57:46.101Z,999.8515015
2022-09-25T06:58:48.005Z,999.9265747
2022-09-25T06:59:44.375Z,999.8964233
2022-09-25T07:00:47.612Z,999.9229126
2022-09-25T07:01:43.364Z,999.8822021
2022-09-25T07:02:46.816Z,999.8762207
2022-09-25T07:03:41.607Z,999.892395
2022-09-25T07:04:43.863Z,999.8640747
2022-09-25T07:05:37.442Z,999.8719482
2022-09-25T07:06:41.001Z,1000.012573
2022-09-25T07:07:37.461Z,999.9818726
2022-09-25T07:09:33.189Z,999.9735718
2022-09-25T07:10:34.619Z,1000
2022-09-25T07:11:27.353Z,999.9795532
2022-09-25T07:12:34.978Z,1000.032471
2022-09-25T07:15:08.155Z,1000.013123
2022-09-25T07:16:07.818Z,1000.015076
2022-09-25T07:17:05.020Z,999.9763184
2022-09-25T07:19:09.648Z,1000.022644
2022-09-25T07:19:29.619Z,1000.012024
2022-09-25T07:20:27.654Z,1000.029236
2022-09-25T07:21:27.182Z,1000.035156
2022-09-25T07:22:22.342Z,999.9806519
2022-09-25T07:23:21.835Z,1000.019714
2022-09-25T07:25:16.384Z,1000.040222
2022-09-25T07:26:11.048Z,1000.031982
2022-09-25T07:27:11.415Z,1000.058411
2022-09-25T07:28:06.707Z,1000.007813
2022-09-25T07:30:01.203Z,1000.044556
2022-09-25T07:31:02.238Z,1000.056824
2022-09-25T07:31:57.620Z,1000.014038
2022-09-25T07:33:00.127Z,1000.101868
2022-09-25T07:34:51.450Z,1000.097473
2022-09-25T07:35:46.058Z,1000.121704
2022-09-25T07:36:46.658Z,1000.076965
2022-09-25T07:37:41.314Z,1000.093201
2022-09-25T07:39:36.133Z,1000.156433
2022-09-25T07:40:38.054Z,1000.158447
2022-09-25T07:41:30.609Z,1000.103455
2022-09-25T07:42:30.019Z,1000.135925
2022-09-25T07:43:24.783Z,1000.141846
2022-09-25T07:45:22.943Z,1000.164063
2022-09-25T07:46:19.034Z,1000.13092
2022-09-25T07:47:18.161Z,1000.118591
2022-09-25T07:48:12.961Z,1000.212036
2022-09-25T07:50:11.997Z,1000.157043
2022-09-25T07:50:15.497Z,1000.157043
2022-09-25T07:51:08.129Z,1000.144348
2022-09-25T07:52:31.726Z,1000.129761
2022-09-25T07:53:11.754Z,1000.111572
2022-09-25T07:55:09.647Z,1000.157837
2022-09-25T07:56:06.825Z,1000.117493
2022-09-25T07:57:05.052Z,1000.088623
2022-09-25T07:58:00.873Z,1000.139587
2022-09-25T07:59:01.388Z,1000.113098
2022-09-25T07:59:56.808Z,1000.102783
2022-09-25T08:00:57.009Z,1000.049866
2022-09-25T08:01:54.171Z,1000.082214
2022-09-25T08:02:54.025Z,1000.073975
2022-09-25T08:04:49.673Z,1000.096069
2022-09-25T08:05:45.035Z,1000.13092
2022-09-25T08:06:46.164Z,1000.153076
2022-09-25T08:07:42.324Z,1000.128113
2022-09-25T08:08:40.561Z,1000.160461
2022-09-25T08:09:40.514Z,1000.147827
2022-09-25T08:10:36.073Z,1000.162048
2022-09-25T08:11:38.217Z,1000.188599
2022-09-25T08:12:33.658Z,1000.167969
2022-09-25T08:14:29.844Z,1000.216553
2022-09-25T08:15:33.000Z,1000.179871
2022-09-25T08:16:27.288Z,1000.137024
2022-09-25T08:17:26.796Z,1000.167175
2022-09-25T08:18:22.385Z,1000.128296
2022-09-25T08:19:23.050Z,1000.246155
2022-09-25T08:20:19.385Z,1000.195129
2022-09-25T08:21:22.899Z,1000.140076
2022-09-25T08:22:17.397Z,1000.164246
2022-09-25T08:23:18.309Z,1000.19812
2022-09-25T08:24:15.671Z,1000.125916
2022-09-25T08:25:16.656Z,1000.062012
2022-09-25T08:26:13.132Z,1000.140625
2022-09-25T08:27:16.891Z,1000.142029
2022-09-25T08:28:13.165Z,1000.047974
2022-09-25T08:29:10.071Z,1000.137268
2022-09-25T08:30:11.331Z,1000.114197
2022-09-25T08:31:09.851Z,1000.122437
2022-09-25T08:32:06.195Z,1000.050781
2022-09-25T08:33:15.144Z,1000.091431
2022-09-25T08:33:15.948Z,1000.091431
2022-09-25T08:34:35.815Z,1000.074219
2022-09-25T08:34:36.327Z,1000.074219
2022-09-25T08:34:39.362Z,1000.074219
2022-09-25T08:35:07.973Z,1000.172791
2022-09-25T08:36:05.199Z,1000.11438
2022-09-25T08:37:07.024Z,1000.097168
2022-09-25T08:38:04.619Z,1000.176025
2022-09-25T08:39:08.286Z,1000.139038
2022-09-25T08:40:03.418Z,1000.171509
2022-09-25T08:41:03.207Z,1000.165649
2022-09-25T08:41:59.628Z,1000.104309
2022-09-25T08:43:03.749Z,1000.139038
2022-09-25T08:43:57.515Z,1000.120483
2022-09-25T08:45:19.884Z,1000.134521
2022-09-25T08:45:20.438Z,1000.134521
2022-09-25T08:46:00.885Z,1000.155457
2022-09-25T08:46:59.088Z,1000.039246
2022-09-25T08:48:01.772Z,1000.161743
2022-09-25T08:49:26.952Z,1000.162964
2022-09-25T08:50:08.067Z,1000.15741
2022-09-25T08:51:09.779Z,1000.101807
2022-09-25T08:52:06.811Z,1000.107605
2022-09-25T08:53:08.627Z,1000.111267
2022-09-25T08:54:06.614Z,1000.061707
2022-09-25T08:55:05.093Z,1000.062805
2022-09-25T08:56:07.165Z,1000.120483
2022-09-25T08:57:05.369Z,1000.023438
2022-09-25T08:58:06.592Z,1000.179504
2022-09-25T09:00:06.030Z,1000.124939
2022-09-25T09:01:03.568Z,1000.152649
2022-09-25T09:02:05.671Z,1000.035767
2022-09-25T09:03:02.014Z,1000.065918
2022-09-25T09:04:01.930Z,1000.109863
2022-09-25T09:04:57.987Z,1000.028992
2022-09-25T09:05:55.721Z,1000.067322
2022-09-25T09:07:25.177Z,1000.015259
2022-09-25T09:07:25.675Z,1000.015259
2022-09-25T09:07:26.452Z,1000.015259
2022-09-25T09:07:57.651Z,1000.014221
2022-09-25T09:09:59.579Z,1000.116699
2022-09-25T09:10:54.741Z,1000.099365
2022-09-25T09:11:54.967Z,1000.073914
2022-09-25T09:12:54.479Z,1000.104675
2022-09-25T09:14:54.402Z,1000.142822
2022-09-25T09:15:52.543Z,1000.117188
2022-09-25T09:16:53.304Z,1000.148499
2022-09-25T09:17:50.230Z,1000.104675
2022-09-25T09:19:49.875Z,1000.094299
2022-09-25T09:20:51.731Z,1000.088379
2022-09-25T09:21:49.239Z,1000.06842
2022-09-25T09:22:50.316Z,1000.075134
2022-09-25T09:24:49.861Z,1000.060913
2022-09-25T09:25:51.443Z,1000.013733
2022-09-25T09:26:55.348Z,1000.072632
2022-09-25T09:27:53.095Z,999.9671631
2022-09-25T09:29:53.957Z,1000.098999
2022-09-25T09:31:33.861Z,999.9321899
2022-09-25T09:32:14.462Z,999.9793701
2022-09-25T09:33:14.763Z,999.9545288
2022-09-25T09:34:16.426Z,999.9785767
2022-09-25T09:35:13.908Z,999.9310303
2022-09-25T09:36:16.306Z,999.9537354
2022-09-25T09:37:13.551Z,999.859375
2022-09-25T09:38:15.309Z,1000.006409
2022-09-25T09:39:12.632Z,999.9313354
2022-09-25T09:40:14.451Z,999.9432983
2022-09-25T09:41:11.648Z,999.9692993
2022-09-25T09:42:12.383Z,999.942627
2022-09-25T09:43:08.591Z,1000.033142
2022-09-25T09:45:08.027Z,999.9475098
2022-09-25T09:46:11.602Z,1000.02002
2022-09-25T09:47:06.713Z,999.9378052
2022-09-25T09:48:09.465Z,999.9247437
2022-09-25T09:49:03.051Z,999.9321899
2022-09-25T09:50:05.080Z,999.9111938
2022-09-25T09:51:05.359Z,999.906311
2022-09-25T09:52:03.329Z,999.9417114
2022-09-25T09:53:05.621Z,999.8520508
2022-09-25T09:54:03.734Z,999.9031372
2022-09-25T09:55:04.164Z,999.8989868
2022-09-25T09:56:06.488Z,999.9068604
2022-09-25T09:57:01.749Z,999.9369507
2022-09-25T09:58:03.221Z,999.9118042
2022-09-25T10:00:04.578Z,999.9296875
2022-09-25T10:00:05.759Z,999.9296875
2022-09-25T10:01:11.126Z,999.9612427
2022-09-25T10:01:22.145Z,999.9612427
2022-09-25T10:01:29.081Z,999.9612427
2022-09-25T10:01:59.229Z,999.9748535
2022-09-25T10:02:55.607Z,999.9031372
2022-09-25T10:04:50.427Z,999.8811035
2022-09-25T10:05:51.898Z,999.9417725
2022-09-25T10:06:47.097Z,999.9642334
2022-09-25T10:07:47.526Z,999.9715576
2022-09-25T10:08:42.813Z,999.9043579
2022-09-25T10:09:42.956Z,999.9375
2022-09-25T10:10:39.932Z,999.927002
2022-09-25T10:11:41.514Z,999.9117432
2022-09-25T10:12:38.510Z,999.9157715
2022-09-25T10:14:37.298Z,999.8908081
2022-09-25T10:15:38.943Z,999.8641357
2022-09-25T10:16:36.028Z,999.939209
2022-09-25T10:17:36.535Z,999.9667358
2022-09-25T10:18:33.787Z,999.8811035
2022-09-25T10:20:33.340Z,999.8552856
2022-09-25T10:20:53.597Z,999.8425293
2022-09-25T10:21:52.513Z,999.8756104
2022-09-25T10:22:51.738Z,999.977417
2022-09-25T10:24:50.560Z,999.8657837
2022-09-25T10:25:46.741Z,999.8473511
2022-09-25T10:26:47.522Z,999.8417358
2022-09-25T10:27:43.939Z,999.7932739
2022-09-25T10:28:47.774Z,999.8627319
2022-09-25T10:29:41.447Z,999.8635254
2022-09-25T10:30:42.750Z,999.9142456
2022-09-25T10:31:39.059Z,999.8320313
2022-09-25T10:32:39.877Z,999.7948608
2022-09-25T10:33:36.117Z,999.8294678
2022-09-25T10:34:34.970Z,999.8334351
2022-09-25T10:35:34.875Z,999.7697144
2022-09-25T10:36:30.322Z,999.8045044
2022-09-25T10:37:33.090Z,999.822998
2022-09-25T10:38:26.466Z,999.8085938
2022-09-25T10:39:43.714Z,999.8309326
2022-09-25T10:39:46.361Z,999.8309326
2022-09-25T10:40:23.933Z,999.8244629
2022-09-25T10:41:19.158Z,999.7751465
2022-09-25T10:42:19.257Z,999.8357544
2022-09-25T10:43:16.167Z,999.8104858
2022-09-25T10:44:18.823Z,999.7851563
2022-09-25T10:45:11.708Z,999.7192383
2022-09-25T10:46:11.913Z,999.7597046
2022-09-25T10:47:07.109Z,999.7157593
2022-09-25T10:48:07.082Z,999.7340698
2022-09-25T10:50:04.866Z,999.7134399
2022-09-25T10:50:57.522Z,999.7750244
2022-09-25T10:52:21.900Z,999.8283081
2022-09-25T10:53:02.402Z,999.8466187
2022-09-25T10:55:01.499Z,999.8406372
2022-09-25T10:55:57.207Z,999.8964233
2022-09-25T10:56:57.843Z,999.8720093
2022-09-25T10:57:53.576Z,999.866272
2022-09-25T10:58:54.405Z,999.8261108
2022-09-25T10:59:50.213Z,999.8470459
2022-09-25T11:00:48.476Z,999.8308105
2022-09-25T11:01:49.259Z,999.867981
2022-09-25T11:02:45.021Z,999.899292
2022-09-25T11:03:45.740Z,999.8216553
2022-09-25T11:04:41.449Z,999.760498
2022-09-25T11:05:44.570Z,999.7893066
2022-09-25T11:06:38.833Z,999.7789307
2022-09-25T11:07:38.682Z,999.7416992
2022-09-25T11:08:34.409Z,999.7595215
2022-09-25T11:09:35.078Z,999.746582
2022-09-25T11:10:30.946Z,999.736084
2022-09-25T11:11:31.528Z,999.6286011
2022-09-25T11:12:27.368Z,999.687561
2022-09-25T11:13:28.169Z,999.6425781
2022-09-25T11:14:23.768Z,999.7302856
2022-09-25T11:15:26.937Z,999.6853027
2022-09-25T11:16:21.310Z,999.6748657
2022-09-25T11:17:20.923Z,999.6644287
2022-09-25T11:18:17.203Z,999.680603
2022-09-25T11:19:17.364Z,999.6723633
2022-09-25T11:20:13.012Z,999.680603
2022-09-25T11:21:16.171Z,999.7047119
2022-09-25T11:22:10.477Z,999.739502
2022-09-25T11:23:10.256Z,999.7313232
2022-09-25T11:24:06.033Z,999.6723633
2022-09-25T11:25:06.050Z,999.6885986
2022-09-25T11:26:01.909Z,999.7094727
2022-09-25T11:27:40.082Z,999.6676636
2022-09-25T11:28:20.035Z,999.6467285
2022-09-25T11:30:17.684Z,999.6815796
2022-09-25T11:31:13.036Z,999.6387329
2022-09-25T11:32:13.061Z,999.6676636
2022-09-25T11:33:08.357Z,999.6862793
2022-09-25T11:34:08.532Z,999.590332
2022-09-25T11:35:03.809Z,999.6434937
2022-09-25T11:36:04.069Z,999.6331177
2022-09-25T11:37:00.245Z,999.579834
2022-09-25T11:38:03.109Z,999.6143799
2022-09-25T11:38:55.962Z,999.5345459
2022-09-25T11:39:58.826Z,999.5532227
2022-09-25T11:40:51.804Z,999.6282959
2022-09-25T11:41:52.022Z,999.5620117
2022-09-25T11:42:48.841Z,999.5459595